SCMK weather

Melinka Airport
Melinka, Aysén Region, Chile

Public forecast

Using degrees Celsius for public forecast. Weather courtesy of forecast.io.

Current aviation weather report (METAR) for Melinka Airport

Retrieved 2020/07/07 06:00 UTC (26 minutes ago):

SCMK 070600Z AUTO 05019KT //// // BKN170/// BKN220/// 07/05 Q1014

Closest aviation forecast (TAF) to Melinka Airport

Forecast is more than 12 hours old.

Closest forecast is Chaitén Airport, 73.4 nm (136.0 km) NE. Retrieved 2018/09/16 12:33 UTC (2 years ago):

TAF SPJL 161124Z 1612/1712 VRB04KT 9999 FEW020LVA0551 161131 GG KWBCYMYX MPZZMAMX 161130 SCSCYZYX SPCH03 SCTN 161130 SPECI SCTN 161130Z 36020G31KT +RA SCT013 OVC017 11/09 Q1009